sensor_id;sensor_type;location;lat;lon;timestamp;P1;durP1;ratioP1;P2;durP2;ratioP2
38312;SDS011;24114;52.260;6.714;2023-03-31T00:00:45;6.88;;;2.40;;
38312;SDS011;24114;52.260;6.714;2023-03-31T00:03:13;7.68;;;2.40;;
38312;SDS011;24114;52.260;6.714;2023-03-31T00:05:48;6.70;;;2.38;;
38312;SDS011;24114;52.260;6.714;2023-03-31T00:08:18;8.20;;;2.20;;
38312;SDS011;24114;52.260;6.714;2023-03-31T00:10:46;7.18;;;2.50;;
38312;SDS011;24114;52.260;6.714;2023-03-31T00:13:14;6.57;;;2.90;;
38312;SDS011;24114;52.260;6.714;2023-03-31T00:15:44;11.70;;;2.20;;
38312;SDS011;24114;52.260;6.714;2023-03-31T00:18:11;6.10;;;2.40;;
38312;SDS011;24114;52.260;6.714;2023-03-31T00:20:39;7.47;;;2.37;;
38312;SDS011;24114;52.260;6.714;2023-03-31T00:23:08;8.60;;;2.50;;
38312;SDS011;24114;52.260;6.714;2023-03-31T00:25:38;8.65;;;2.40;;
38312;SDS011;24114;52.260;6.714;2023-03-31T00:28:07;5.35;;;2.28;;
38312;SDS011;24114;52.260;6.714;2023-03-31T00:30:34;6.25;;;2.00;;
38312;SDS011;24114;52.260;6.714;2023-03-31T00:33:04;7.38;;;2.03;;
38312;SDS011;24114;52.260;6.714;2023-03-31T00:35:33;5.45;;;2.03;;
38312;SDS011;24114;52.260;6.714;2023-03-31T00:38:04;5.00;;;1.83;;
38312;SDS011;24114;52.260;6.714;2023-03-31T00:40:34;6.47;;;2.08;;
38312;SDS011;24114;52.260;6.714;2023-03-31T00:43:01;6.25;;;1.92;;
38312;SDS011;24114;52.260;6.714;2023-03-31T00:45:29;6.38;;;2.20;;
38312;SDS011;24114;52.260;6.714;2023-03-31T00:48:00;6.43;;;2.00;;
38312;SDS011;24114;52.260;6.714;2023-03-31T00:50:32;6.68;;;1.92;;
38312;SDS011;24114;52.260;6.714;2023-03-31T00:53:03;7.22;;;2.25;;
38312;SDS011;24114;52.260;6.714;2023-03-31T00:55:34;6.50;;;2.20;;
38312;SDS011;24114;52.260;6.714;2023-03-31T00:58:04;6.38;;;1.75;;
38312;SDS011;24114;52.260;6.714;2023-03-31T01:00:33;5.75;;;1.90;;
38312;SDS011;24114;52.260;6.714;2023-03-31T01:03:02;5.55;;;1.80;;
38312;SDS011;24114;52.260;6.714;2023-03-31T01:05:34;6.60;;;2.47;;
38312;SDS011;24114;52.260;6.714;2023-03-31T01:08:04;5.47;;;1.70;;
38312;SDS011;24114;52.260;6.714;2023-03-31T01:10:33;5.85;;;2.30;;
38312;SDS011;24114;52.260;6.714;2023-03-31T01:13:07;7.63;;;2.10;;
38312;SDS011;24114;52.260;6.714;2023-03-31T01:15:35;6.22;;;2.10;;
38312;SDS011;24114;52.260;6.714;2023-03-31T01:18:03;6.77;;;2.00;;
38312;SDS011;24114;52.260;6.714;2023-03-31T01:20:33;7.35;;;2.40;;
38312;SDS011;24114;52.260;6.714;2023-03-31T01:29:06;5.95;;;1.92;;
38312;SDS011;24114;52.260;6.714;2023-03-31T01:31:58;7.88;;;2.22;;
38312;SDS011;24114;52.260;6.714;2023-03-31T01:34:38;6.25;;;2.25;;
38312;SDS011;24114;52.260;6.714;2023-03-31T01:40:45;5.07;;;1.83;;
38312;SDS011;24114;52.260;6.714;2023-03-31T01:43:25;6.10;;;1.90;;
38312;SDS011;24114;52.260;6.714;2023-03-31T01:45:56;7.35;;;2.15;;
38312;SDS011;24114;52.260;6.714;2023-03-31T01:48:34;4.87;;;1.53;;
38312;SDS011;24114;52.260;6.714;2023-03-31T01:51:09;5.40;;;1.73;;
38312;SDS011;24114;52.260;6.714;2023-03-31T01:53:41;5.03;;;1.70;;
38312;SDS011;24114;52.260;6.714;2023-03-31T01:56:14;6.50;;;1.90;;
38312;SDS011;24114;52.260;6.714;2023-03-31T01:58:46;7.70;;;1.90;;
38312;SDS011;24114;52.260;6.714;2023-03-31T02:01:19;6.82;;;1.95;;
38312;SDS011;24114;52.260;6.714;2023-03-31T02:03:49;5.20;;;1.58;;
38312;SDS011;24114;52.260;6.714;2023-03-31T02:06:22;4.45;;;1.90;;
38312;SDS011;24114;52.260;6.714;2023-03-31T02:08:53;5.85;;;1.80;;
38312;SDS011;24114;52.260;6.714;2023-03-31T02:11:24;6.28;;;1.80;;
38312;SDS011;24114;52.260;6.714;2023-03-31T02:13:55;7.93;;;1.85;;
38312;SDS011;24114;52.260;6.714;2023-03-31T02:16:23;5.60;;;1.67;;
38312;SDS011;24114;52.260;6.714;2023-03-31T02:18:53;5.63;;;2.20;;
38312;SDS011;24114;52.260;6.714;2023-03-31T02:21:27;5.85;;;2.00;;
38312;SDS011;24114;52.260;6.714;2023-03-31T02:23:56;6.28;;;2.30;;
38312;SDS011;24114;52.260;6.714;2023-03-31T02:26:26;6.38;;;2.30;;
38312;SDS011;24114;52.260;6.714;2023-03-31T02:28:56;5.30;;;2.10;;
38312;SDS011;24114;52.260;6.714;2023-03-31T02:31:25;7.88;;;2.63;;
38312;SDS011;24114;52.260;6.714;2023-03-31T02:33:55;6.63;;;2.30;;
38312;SDS011;24114;52.260;6.714;2023-03-31T02:36:23;5.60;;;2.08;;
38312;SDS011;24114;52.260;6.714;2023-03-31T02:38:52;6.45;;;2.40;;
38312;SDS011;24114;52.260;6.714;2023-03-31T02:41:23;6.05;;;2.15;;
38312;SDS011;24114;52.260;6.714;2023-03-31T02:43:52;7.13;;;2.75;;
38312;SDS011;24114;52.260;6.714;2023-03-31T02:46:20;5.47;;;2.33;;
38312;SDS011;24114;52.260;6.714;2023-03-31T02:48:48;8.98;;;2.45;;
38312;SDS011;24114;52.260;6.714;2023-03-31T02:54:19;3.55;;;1.30;;
38312;SDS011;24114;52.260;6.714;2023-03-31T02:57:00;4.03;;;1.40;;
38312;SDS011;24114;52.260;6.714;2023-03-31T02:59:40;7.33;;;1.40;;
38312;SDS011;24114;52.260;6.714;2023-03-31T03:02:15;4.63;;;1.35;;
38312;SDS011;24114;52.260;6.714;2023-03-31T03:04:56;3.45;;;1.30;;
38312;SDS011;24114;52.260;6.714;2023-03-31T03:07:45;4.43;;;1.23;;
38312;SDS011;24114;52.260;6.714;2023-03-31T03:10:16;3.83;;;1.23;;
38312;SDS011;24114;52.260;6.714;2023-03-31T03:12:51;4.50;;;1.40;;
38312;SDS011;24114;52.260;6.714;2023-03-31T03:15:26;3.78;;;1.00;;
38312;SDS011;24114;52.260;6.714;2023-03-31T03:17:55;4.15;;;1.30;;
38312;SDS011;24114;52.260;6.714;2023-03-31T03:20:23;6.40;;;1.55;;
38312;SDS011;24114;52.260;6.714;2023-03-31T03:22:51;4.82;;;1.30;;
38312;SDS011;24114;52.260;6.714;2023-03-31T03:25:19;5.10;;;1.63;;
38312;SDS011;24114;52.260;6.714;2023-03-31T03:27:47;4.70;;;1.40;;
38312;SDS011;24114;52.260;6.714;2023-03-31T03:30:14;3.85;;;1.45;;
38312;SDS011;24114;52.260;6.714;2023-03-31T03:32:44;5.07;;;1.48;;
38312;SDS011;24114;52.260;6.714;2023-03-31T03:35:12;6.78;;;2.47;;
38312;SDS011;24114;52.260;6.714;2023-03-31T03:37:40;6.47;;;2.33;;
38312;SDS011;24114;52.260;6.714;2023-03-31T03:40:08;4.22;;;2.50;;
38312;SDS011;24114;52.260;6.714;2023-03-31T03:42:36;4.60;;;2.30;;
38312;SDS011;24114;52.260;6.714;2023-03-31T03:45:05;7.95;;;2.78;;
38312;SDS011;24114;52.260;6.714;2023-03-31T03:47:33;7.20;;;2.80;;
38312;SDS011;24114;52.260;6.714;2023-03-31T03:50:03;5.78;;;3.47;;
38312;SDS011;24114;52.260;6.714;2023-03-31T03:52:31;10.68;;;3.50;;
38312;SDS011;24114;52.260;6.714;2023-03-31T03:54:58;7.40;;;2.90;;
38312;SDS011;24114;52.260;6.714;2023-03-31T03:57:27;7.30;;;3.23;;
38312;SDS011;24114;52.260;6.714;2023-03-31T03:59:55;8.65;;;3.15;;
38312;SDS011;24114;52.260;6.714;2023-03-31T04:02:22;6.82;;;3.05;;
38312;SDS011;24114;52.260;6.714;2023-03-31T04:04:53;7.32;;;3.03;;
38312;SDS011;24114;52.260;6.714;2023-03-31T04:07:22;10.02;;;3.03;;
38312;SDS011;24114;52.260;6.714;2023-03-31T04:09:50;8.25;;;3.22;;
38312;SDS011;24114;52.260;6.714;2023-03-31T04:12:17;9.10;;;3.63;;
38312;SDS011;24114;52.260;6.714;2023-03-31T04:14:45;8.57;;;3.50;;
38312;SDS011;24114;52.260;6.714;2023-03-31T04:17:13;8.00;;;3.47;;
38312;SDS011;24114;52.260;6.714;2023-03-31T04:19:41;7.73;;;3.67;;
38312;SDS011;24114;52.260;6.714;2023-03-31T04:22:09;7.80;;;3.50;;
38312;SDS011;24114;52.260;6.714;2023-03-31T04:24:42;8.15;;;3.50;;
38312;SDS011;24114;52.260;6.714;2023-03-31T04:27:11;7.25;;;3.22;;
38312;SDS011;24114;52.260;6.714;2023-03-31T04:29:42;9.07;;;3.50;;
38312;SDS011;24114;52.260;6.714;2023-03-31T04:32:20;9.07;;;3.35;;
38312;SDS011;24114;52.260;6.714;2023-03-31T04:34:48;7.68;;;3.40;;
38312;SDS011;24114;52.260;6.714;2023-03-31T04:37:16;8.55;;;3.38;;
38312;SDS011;24114;52.260;6.714;2023-03-31T04:39:45;6.68;;;3.10;;
38312;SDS011;24114;52.260;6.714;2023-03-31T04:42:15;7.80;;;3.22;;
38312;SDS011;24114;52.260;6.714;2023-03-31T04:44:43;6.20;;;2.85;;
38312;SDS011;24114;52.260;6.714;2023-03-31T04:47:11;6.68;;;3.00;;
38312;SDS011;24114;52.260;6.714;2023-03-31T04:49:39;7.43;;;3.37;;
38312;SDS011;24114;52.260;6.714;2023-03-31T04:52:06;7.40;;;2.70;;
38312;SDS011;24114;52.260;6.714;2023-03-31T04:54:34;6.05;;;2.63;;
38312;SDS011;24114;52.260;6.714;2023-03-31T04:57:03;7.07;;;2.83;;
38312;SDS011;24114;52.260;6.714;2023-03-31T04:59:31;6.25;;;2.67;;
38312;SDS011;24114;52.260;6.714;2023-03-31T05:01:59;7.30;;;2.47;;
38312;SDS011;24114;52.260;6.714;2023-03-31T05:04:27;8.83;;;3.00;;
38312;SDS011;24114;52.260;6.714;2023-03-31T05:06:54;7.18;;;2.55;;
38312;SDS011;24114;52.260;6.714;2023-03-31T05:09:22;8.93;;;2.92;;
38312;SDS011;24114;52.260;6.714;2023-03-31T05:11:50;8.70;;;2.78;;
38312;SDS011;24114;52.260;6.714;2023-03-31T05:14:19;9.55;;;2.70;;
38312;SDS011;24114;52.260;6.714;2023-03-31T05:16:47;7.55;;;2.70;;
38312;SDS011;24114;52.260;6.714;2023-03-31T05:19:15;9.37;;;3.07;;
38312;SDS011;24114;52.260;6.714;2023-03-31T05:21:43;10.15;;;2.95;;
38312;SDS011;24114;52.260;6.714;2023-03-31T05:24:12;9.77;;;2.72;;
38312;SDS011;24114;52.260;6.714;2023-03-31T05:26:40;7.40;;;2.88;;
38312;SDS011;24114;52.260;6.714;2023-03-31T05:29:13;8.73;;;3.20;;
38312;SDS011;24114;52.260;6.714;2023-03-31T05:31:43;8.80;;;2.90;;
38312;SDS011;24114;52.260;6.714;2023-03-31T05:34:11;9.38;;;2.67;;
38312;SDS011;24114;52.260;6.714;2023-03-31T05:36:38;8.50;;;2.65;;
38312;SDS011;24114;52.260;6.714;2023-03-31T05:39:06;9.68;;;2.65;;
38312;SDS011;24114;52.260;6.714;2023-03-31T05:41:34;8.13;;;2.70;;
38312;SDS011;24114;52.260;6.714;2023-03-31T05:44:02;9.40;;;2.88;;
38312;SDS011;24114;52.260;6.714;2023-03-31T05:46:29;9.23;;;2.47;;
38312;SDS011;24114;52.260;6.714;2023-03-31T05:48:59;9.60;;;2.80;;
38312;SDS011;24114;52.260;6.714;2023-03-31T05:51:27;8.83;;;2.63;;
38312;SDS011;24114;52.260;6.714;2023-03-31T05:53:55;6.82;;;2.53;;
38312;SDS011;24114;52.260;6.714;2023-03-31T05:56:23;8.48;;;2.70;;
38312;SDS011;24114;52.260;6.714;2023-03-31T05:58:52;8.55;;;2.50;;
38312;SDS011;24114;52.260;6.714;2023-03-31T06:01:20;7.30;;;2.20;;
38312;SDS011;24114;52.260;6.714;2023-03-31T06:03:49;9.73;;;2.30;;
38312;SDS011;24114;52.260;6.714;2023-03-31T06:06:18;10.30;;;2.90;;
38312;SDS011;24114;52.260;6.714;2023-03-31T06:08:46;7.55;;;1.90;;
38312;SDS011;24114;52.260;6.714;2023-03-31T06:11:15;9.75;;;2.80;;
38312;SDS011;24114;52.260;6.714;2023-03-31T06:13:44;8.38;;;2.50;;
38312;SDS011;24114;52.260;6.714;2023-03-31T06:16:13;6.72;;;1.95;;
38312;SDS011;24114;52.260;6.714;2023-03-31T06:18:42;11.60;;;2.58;;
38312;SDS011;24114;52.260;6.714;2023-03-31T06:21:10;8.80;;;2.00;;
38312;SDS011;24114;52.260;6.714;2023-03-31T06:23:41;9.60;;;2.63;;
38312;SDS011;24114;52.260;6.714;2023-03-31T06:26:10;8.18;;;2.55;;
38312;SDS011;24114;52.260;6.714;2023-03-31T06:28:38;7.97;;;2.63;;
38312;SDS011;24114;52.260;6.714;2023-03-31T06:31:06;7.88;;;2.50;;
38312;SDS011;24114;52.260;6.714;2023-03-31T06:33:37;9.88;;;3.13;;
38312;SDS011;24114;52.260;6.714;2023-03-31T06:36:05;7.60;;;2.42;;
38312;SDS011;24114;52.260;6.714;2023-03-31T06:38:35;8.60;;;2.15;;
38312;SDS011;24114;52.260;6.714;2023-03-31T06:41:06;8.20;;;3.17;;
38312;SDS011;24114;52.260;6.714;2023-03-31T06:43:34;10.03;;;3.20;;
38312;SDS011;24114;52.260;6.714;2023-03-31T06:46:02;9.90;;;3.40;;
38312;SDS011;24114;52.260;6.714;2023-03-31T06:48:31;10.32;;;3.63;;
38312;SDS011;24114;52.260;6.714;2023-03-31T06:50:59;9.82;;;3.53;;
38312;SDS011;24114;52.260;6.714;2023-03-31T06:53:27;11.15;;;3.75;;
38312;SDS011;24114;52.260;6.714;2023-03-31T06:55:56;9.55;;;3.67;;
38312;SDS011;24114;52.260;6.714;2023-03-31T06:58:25;10.98;;;3.83;;
38312;SDS011;24114;52.260;6.714;2023-03-31T07:00:56;10.68;;;4.00;;
38312;SDS011;24114;52.260;6.714;2023-03-31T07:03:24;9.30;;;3.97;;
38312;SDS011;24114;52.260;6.714;2023-03-31T07:05:55;10.38;;;4.50;;
38312;SDS011;24114;52.260;6.714;2023-03-31T07:08:23;12.88;;;3.80;;
38312;SDS011;24114;52.260;6.714;2023-03-31T07:10:53;7.65;;;3.72;;
38312;SDS011;24114;52.260;6.714;2023-03-31T07:13:23;9.35;;;4.43;;
38312;SDS011;24114;52.260;6.714;2023-03-31T07:15:52;10.82;;;3.83;;
38312;SDS011;24114;52.260;6.714;2023-03-31T07:18:21;11.48;;;4.05;;
38312;SDS011;24114;52.260;6.714;2023-03-31T07:20:51;9.05;;;3.60;;
38312;SDS011;24114;52.260;6.714;2023-03-31T07:23:19;7.20;;;3.33;;
38312;SDS011;24114;52.260;6.714;2023-03-31T07:25:47;8.57;;;3.30;;
38312;SDS011;24114;52.260;6.714;2023-03-31T07:28:15;8.73;;;3.10;;
38312;SDS011;24114;52.260;6.714;2023-03-31T07:30:43;7.45;;;2.47;;
38312;SDS011;24114;52.260;6.714;2023-03-31T07:33:12;6.53;;;2.55;;
38312;SDS011;24114;52.260;6.714;2023-03-31T07:35:40;6.47;;;2.20;;
38312;SDS011;24114;52.260;6.714;2023-03-31T07:38:09;6.15;;;1.77;;
38312;SDS011;24114;52.260;6.714;2023-03-31T07:40:37;5.50;;;1.87;;
38312;SDS011;24114;52.260;6.714;2023-03-31T07:43:05;7.50;;;1.77;;
38312;SDS011;24114;52.260;6.714;2023-03-31T07:45:33;6.45;;;1.63;;
38312;SDS011;24114;52.260;6.714;2023-03-31T07:48:01;5.93;;;1.73;;
38312;SDS011;24114;52.260;6.714;2023-03-31T07:50:30;7.45;;;1.60;;
38312;SDS011;24114;52.260;6.714;2023-03-31T07:52:58;4.82;;;1.25;;
38312;SDS011;24114;52.260;6.714;2023-03-31T07:55:26;5.68;;;1.30;;
38312;SDS011;24114;52.260;6.714;2023-03-31T07:57:53;4.55;;;1.17;;
38312;SDS011;24114;52.260;6.714;2023-03-31T08:00:21;4.60;;;1.10;;
38312;SDS011;24114;52.260;6.714;2023-03-31T08:02:50;4.93;;;1.00;;
38312;SDS011;24114;52.260;6.714;2023-03-31T08:05:18;5.65;;;1.40;;
38312;SDS011;24114;52.260;6.714;2023-03-31T08:07:48;5.32;;;1.55;;
38312;SDS011;24114;52.260;6.714;2023-03-31T08:10:18;5.60;;;1.10;;
38312;SDS011;24114;52.260;6.714;2023-03-31T08:12:47;6.10;;;1.50;;
38312;SDS011;24114;52.260;6.714;2023-03-31T08:15:15;4.07;;;1.02;;
38312;SDS011;24114;52.260;6.714;2023-03-31T08:17:43;4.95;;;1.23;;
38312;SDS011;24114;52.260;6.714;2023-03-31T08:20:11;4.45;;;1.70;;
38312;SDS011;24114;52.260;6.714;2023-03-31T08:22:39;3.73;;;1.10;;
38312;SDS011;24114;52.260;6.714;2023-03-31T08:25:09;4.20;;;1.20;;
38312;SDS011;24114;52.260;6.714;2023-03-31T08:27:37;3.33;;;1.10;;
38312;SDS011;24114;52.260;6.714;2023-03-31T08:30:06;5.70;;;1.10;;
38312;SDS011;24114;52.260;6.714;2023-03-31T08:32:35;4.60;;;1.20;;
38312;SDS011;24114;52.260;6.714;2023-03-31T08:35:03;3.27;;;0.90;;
38312;SDS011;24114;52.260;6.714;2023-03-31T08:37:32;6.63;;;1.30;;
38312;SDS011;24114;52.260;6.714;2023-03-31T08:40:00;2.50;;;0.63;;
38312;SDS011;24114;52.260;6.714;2023-03-31T08:42:34;3.03;;;0.90;;
38312;SDS011;24114;52.260;6.714;2023-03-31T08:45:04;4.75;;;0.73;;
38312;SDS011;24114;52.260;6.714;2023-03-31T08:47:36;4.03;;;1.10;;
38312;SDS011;24114;52.260;6.714;2023-03-31T08:50:05;4.18;;;1.13;;
38312;SDS011;24114;52.260;6.714;2023-03-31T08:52:35;3.30;;;0.85;;
38312;SDS011;24114;52.260;6.714;2023-03-31T08:55:06;3.58;;;1.13;;
38312;SDS011;24114;52.260;6.714;2023-03-31T08:57:42;2.58;;;0.90;;
38312;SDS011;24114;52.260;6.714;2023-03-31T09:00:18;4.55;;;1.05;;
38312;SDS011;24114;52.260;6.714;2023-03-31T09:02:48;3.72;;;1.00;;
38312;SDS011;24114;52.260;6.714;2023-03-31T09:05:30;3.92;;;0.90;;
38312;SDS011;24114;52.260;6.714;2023-03-31T09:08:30;2.45;;;0.70;;
38312;SDS011;24114;52.260;6.714;2023-03-31T09:11:02;4.13;;;0.98;;
38312;SDS011;24114;52.260;6.714;2023-03-31T09:13:39;4.63;;;1.05;;
38312;SDS011;24114;52.260;6.714;2023-03-31T09:16:19;2.60;;;0.82;;
38312;SDS011;24114;52.260;6.714;2023-03-31T09:18:49;2.60;;;1.40;;
38312;SDS011;24114;52.260;6.714;2023-03-31T09:21:20;4.78;;;1.20;;
38312;SDS011;24114;52.260;6.714;2023-03-31T09:23:50;3.92;;;1.33;;
38312;SDS011;24114;52.260;6.714;2023-03-31T09:26:23;4.03;;;1.17;;
38312;SDS011;24114;52.260;6.714;2023-03-31T09:28:55;4.43;;;1.05;;
38312;SDS011;24114;52.260;6.714;2023-03-31T09:31:24;3.87;;;0.80;;
38312;SDS011;24114;52.260;6.714;2023-03-31T09:33:53;3.63;;;0.90;;
38312;SDS011;24114;52.260;6.714;2023-03-31T09:36:24;4.32;;;1.30;;
38312;SDS011;24114;52.260;6.714;2023-03-31T09:38:51;4.50;;;1.20;;
38312;SDS011;24114;52.260;6.714;2023-03-31T09:41:19;3.90;;;1.15;;
38312;SDS011;24114;52.260;6.714;2023-03-31T09:43:47;5.78;;;1.40;;
38312;SDS011;24114;52.260;6.714;2023-03-31T09:46:20;3.20;;;0.80;;
38312;SDS011;24114;52.260;6.714;2023-03-31T09:48:54;5.10;;;2.83;;
38312;SDS011;24114;52.260;6.714;2023-03-31T09:51:26;7.67;;;1.60;;
38312;SDS011;24114;52.260;6.714;2023-03-31T09:53:59;6.88;;;2.15;;
38312;SDS011;24114;52.260;6.714;2023-03-31T09:56:33;7.60;;;1.85;;
38312;SDS011;24114;52.260;6.714;2023-03-31T09:59:13;6.13;;;2.15;;
38312;SDS011;24114;52.260;6.714;2023-03-31T10:01:45;6.07;;;2.40;;
38312;SDS011;24114;52.260;6.714;2023-03-31T10:04:16;5.78;;;1.98;;
38312;SDS011;24114;52.260;6.714;2023-03-31T10:06:46;5.88;;;1.90;;
38312;SDS011;24114;52.260;6.714;2023-03-31T10:09:15;5.78;;;1.83;;
38312;SDS011;24114;52.260;6.714;2023-03-31T10:11:53;5.68;;;2.03;;
38312;SDS011;24114;52.260;6.714;2023-03-31T10:14:24;5.80;;;1.77;;
38312;SDS011;24114;52.260;6.714;2023-03-31T10:16:55;9.30;;;2.40;;
38312;SDS011;24114;52.260;6.714;2023-03-31T10:19:24;7.57;;;2.47;;
38312;SDS011;24114;52.260;6.714;2023-03-31T10:21:57;8.80;;;2.70;;
38312;SDS011;24114;52.260;6.714;2023-03-31T10:24:26;7.50;;;2.33;;
38312;SDS011;24114;52.260;6.714;2023-03-31T10:27:03;10.18;;;2.83;;
38312;SDS011;24114;52.260;6.714;2023-03-31T10:29:32;7.38;;;2.42;;
38312;SDS011;24114;52.260;6.714;2023-03-31T10:32:03;9.02;;;2.28;;
38312;SDS011;24114;52.260;6.714;2023-03-31T10:34:31;7.63;;;1.98;;
38312;SDS011;24114;52.260;6.714;2023-03-31T10:37:00;8.15;;;2.17;;
38312;SDS011;24114;52.260;6.714;2023-03-31T10:39:30;7.53;;;2.47;;
38312;SDS011;24114;52.260;6.714;2023-03-31T10:41:59;7.45;;;2.00;;
38312;SDS011;24114;52.260;6.714;2023-03-31T10:44:30;8.98;;;2.47;;
38312;SDS011;24114;52.260;6.714;2023-03-31T10:47:04;10.30;;;2.80;;
38312;SDS011;24114;52.260;6.714;2023-03-31T10:49:36;8.93;;;2.55;;
38312;SDS011;24114;52.260;6.714;2023-03-31T10:52:10;11.45;;;2.80;;
38312;SDS011;24114;52.260;6.714;2023-03-31T10:54:45;10.13;;;2.55;;
38312;SDS011;24114;52.260;6.714;2023-03-31T10:57:14;10.65;;;2.65;;
38312;SDS011;24114;52.260;6.714;2023-03-31T10:59:48;8.10;;;2.35;;
38312;SDS011;24114;52.260;6.714;2023-03-31T11:02:40;11.07;;;2.90;;
38312;SDS011;24114;52.260;6.714;2023-03-31T11:05:30;10.93;;;2.90;;
38312;SDS011;24114;52.260;6.714;2023-03-31T11:08:07;12.38;;;2.70;;
38312;SDS011;24114;52.260;6.714;2023-03-31T11:10:50;10.48;;;2.50;;
38312;SDS011;24114;52.260;6.714;2023-03-31T11:13:25;9.95;;;2.45;;
38312;SDS011;24114;52.260;6.714;2023-03-31T11:15:59;12.85;;;2.67;;
38312;SDS011;24114;52.260;6.714;2023-03-31T11:18:44;8.52;;;2.53;;
38312;SDS011;24114;52.260;6.714;2023-03-31T11:21:20;9.73;;;2.80;;
38312;SDS011;24114;52.260;6.714;2023-03-31T11:23:55;9.20;;;2.60;;
38312;SDS011;24114;52.260;6.714;2023-03-31T11:26:30;8.10;;;2.75;;
38312;SDS011;24114;52.260;6.714;2023-03-31T11:29:05;7.72;;;2.22;;
38312;SDS011;24114;52.260;6.714;2023-03-31T11:31:43;7.45;;;2.33;;
38312;SDS011;24114;52.260;6.714;2023-03-31T11:34:23;10.15;;;2.78;;
38312;SDS011;24114;52.260;6.714;2023-03-31T11:37:07;9.87;;;2.27;;
38312;SDS011;24114;52.260;6.714;2023-03-31T11:39:45;9.32;;;2.30;;
38312;SDS011;24114;52.260;6.714;2023-03-31T11:42:21;10.65;;;2.63;;
38312;SDS011;24114;52.260;6.714;2023-03-31T11:44:53;9.85;;;2.53;;
38312;SDS011;24114;52.260;6.714;2023-03-31T11:47:23;8.65;;;2.40;;
38312;SDS011;24114;52.260;6.714;2023-03-31T11:49:54;9.13;;;2.60;;
38312;SDS011;24114;52.260;6.714;2023-03-31T11:52:26;8.25;;;2.35;;
38312;SDS011;24114;52.260;6.714;2023-03-31T11:54:56;8.80;;;2.43;;
38312;SDS011;24114;52.260;6.714;2023-03-31T11:57:29;7.82;;;2.08;;
38312;SDS011;24114;52.260;6.714;2023-03-31T11:59:59;8.10;;;1.95;;
38312;SDS011;24114;52.260;6.714;2023-03-31T12:02:35;7.83;;;2.10;;
38312;SDS011;24114;52.260;6.714;2023-03-31T12:05:08;8.05;;;2.10;;
38312;SDS011;24114;52.260;6.714;2023-03-31T12:07:38;7.22;;;2.03;;
38312;SDS011;24114;52.260;6.714;2023-03-31T12:10:11;6.72;;;1.75;;
38312;SDS011;24114;52.260;6.714;2023-03-31T12:12:45;8.23;;;1.80;;
38312;SDS011;24114;52.260;6.714;2023-03-31T12:15:16;9.65;;;1.77;;
38312;SDS011;24114;52.260;6.714;2023-03-31T12:17:47;13.40;;;2.42;;
38312;SDS011;24114;52.260;6.714;2023-03-31T12:20:20;6.80;;;1.88;;
38312;SDS011;24114;52.260;6.714;2023-03-31T12:22:52;5.28;;;1.60;;
38312;SDS011;24114;52.260;6.714;2023-03-31T12:25:21;6.22;;;1.90;;
38312;SDS011;24114;52.260;6.714;2023-03-31T12:27:51;7.30;;;1.92;;
38312;SDS011;24114;52.260;6.714;2023-03-31T12:30:21;6.70;;;1.85;;
38312;SDS011;24114;52.260;6.714;2023-03-31T12:32:55;5.32;;;1.60;;
38312;SDS011;24114;52.260;6.714;2023-03-31T12:35:28;8.90;;;1.70;;
38312;SDS011;24114;52.260;6.714;2023-03-31T12:38:08;9.20;;;2.08;;
38312;SDS011;24114;52.260;6.714;2023-03-31T12:40:56;6.43;;;1.55;;
38312;SDS011;24114;52.260;6.714;2023-03-31T12:43:36;9.15;;;1.70;;
38312;SDS011;24114;52.260;6.714;2023-03-31T12:46:23;5.60;;;1.30;;
38312;SDS011;24114;52.260;6.714;2023-03-31T12:49:12;5.22;;;1.30;;
38312;SDS011;24114;52.260;6.714;2023-03-31T12:51:52;5.80;;;1.45;;
38312;SDS011;24114;52.260;6.714;2023-03-31T12:54:31;6.23;;;1.30;;
38312;SDS011;24114;52.260;6.714;2023-03-31T12:57:19;6.13;;;1.50;;
38312;SDS011;24114;52.260;6.714;2023-03-31T13:02:46;4.88;;;1.27;;
38312;SDS011;24114;52.260;6.714;2023-03-31T13:08:47;5.63;;;1.42;;
38312;SDS011;24114;52.260;6.714;2023-03-31T13:11:16;5.78;;;1.30;;
38312;SDS011;24114;52.260;6.714;2023-03-31T13:13:44;6.85;;;1.63;;
38312;SDS011;24114;52.260;6.714;2023-03-31T13:16:33;4.70;;;1.15;;
38312;SDS011;24114;52.260;6.714;2023-03-31T13:19:02;6.72;;;1.52;;
38312;SDS011;24114;52.260;6.714;2023-03-31T13:21:30;5.45;;;1.30;;
38312;SDS011;24114;52.260;6.714;2023-03-31T13:23:59;6.20;;;1.23;;
38312;SDS011;24114;52.260;6.714;2023-03-31T13:26:35;5.18;;;1.30;;
38312;SDS011;24114;52.260;6.714;2023-03-31T13:29:18;6.60;;;1.65;;
38312;SDS011;24114;52.260;6.714;2023-03-31T13:34:53;6.07;;;1.30;;
38312;SDS011;24114;52.260;6.714;2023-03-31T13:37:37;6.03;;;1.30;;
38312;SDS011;24114;52.260;6.714;2023-03-31T13:40:17;7.50;;;1.55;;
38312;SDS011;24114;52.260;6.714;2023-03-31T13:45:47;6.63;;;1.95;;
38312;SDS011;24114;52.260;6.714;2023-03-31T13:48:27;7.78;;;1.67;;
38312;SDS011;24114;52.260;6.714;2023-03-31T13:57:16;5.32;;;1.45;;
38312;SDS011;24114;52.260;6.714;2023-03-31T14:00:10;7.53;;;1.63;;
38312;SDS011;24114;52.260;6.714;2023-03-31T14:02:46;7.40;;;1.47;;
38312;SDS011;24114;52.260;6.714;2023-03-31T14:05:22;7.80;;;1.40;;
38312;SDS011;24114;52.260;6.714;2023-03-31T14:07:53;5.90;;;1.67;;
38312;SDS011;24114;52.260;6.714;2023-03-31T14:10:23;5.73;;;1.37;;
38312;SDS011;24114;52.260;6.714;2023-03-31T14:13:04;5.43;;;1.08;;
38312;SDS011;24114;52.260;6.714;2023-03-31T14:15:36;7.32;;;1.52;;
38312;SDS011;24114;52.260;6.714;2023-03-31T14:18:06;6.38;;;1.30;;
38312;SDS011;24114;52.260;6.714;2023-03-31T14:20:36;7.22;;;1.33;;
38312;SDS011;24114;52.260;6.714;2023-03-31T14:23:10;7.30;;;1.20;;
38312;SDS011;24114;52.260;6.714;2023-03-31T14:25:45;4.65;;;1.27;;
38312;SDS011;24114;52.260;6.714;2023-03-31T14:28:22;7.10;;;1.55;;
38312;SDS011;24114;52.260;6.714;2023-03-31T14:31:00;5.97;;;1.40;;
38312;SDS011;24114;52.260;6.714;2023-03-31T14:33:37;6.38;;;1.02;;
38312;SDS011;24114;52.260;6.714;2023-03-31T14:36:10;6.88;;;1.42;;
38312;SDS011;24114;52.260;6.714;2023-03-31T14:38:41;7.13;;;1.70;;
38312;SDS011;24114;52.260;6.714;2023-03-31T14:41:14;6.50;;;1.30;;
38312;SDS011;24114;52.260;6.714;2023-03-31T14:43:47;6.57;;;1.38;;
38312;SDS011;24114;52.260;6.714;2023-03-31T14:46:17;5.72;;;1.17;;
38312;SDS011;24114;52.260;6.714;2023-03-31T14:48:47;9.93;;;1.30;;
38312;SDS011;24114;52.260;6.714;2023-03-31T14:51:17;5.65;;;1.38;;
38312;SDS011;24114;52.260;6.714;2023-03-31T14:53:45;4.82;;;1.27;;
38312;SDS011;24114;52.260;6.714;2023-03-31T14:56:13;9.13;;;1.60;;
38312;SDS011;24114;52.260;6.714;2023-03-31T14:58:43;6.15;;;1.58;;
38312;SDS011;24114;52.260;6.714;2023-03-31T15:01:16;8.68;;;1.60;;
38312;SDS011;24114;52.260;6.714;2023-03-31T15:03:46;7.33;;;1.70;;
38312;SDS011;24114;52.260;6.714;2023-03-31T15:06:14;7.47;;;1.65;;
38312;SDS011;24114;52.260;6.714;2023-03-31T15:08:42;8.70;;;1.90;;
38312;SDS011;24114;52.260;6.714;2023-03-31T15:11:12;8.00;;;1.77;;
38312;SDS011;24114;52.260;6.714;2023-03-31T15:13:45;9.15;;;1.90;;
38312;SDS011;24114;52.260;6.714;2023-03-31T15:16:30;6.43;;;1.60;;
38312;SDS011;24114;52.260;6.714;2023-03-31T15:19:04;7.50;;;1.85;;
38312;SDS011;24114;52.260;6.714;2023-03-31T15:21:35;9.40;;;2.00;;
38312;SDS011;24114;52.260;6.714;2023-03-31T15:26:28;5.78;;;1.25;;
38312;SDS011;24114;52.260;6.714;2023-03-31T15:29:18;4.93;;;1.13;;
38312;SDS011;24114;52.260;6.714;2023-03-31T15:31:48;5.07;;;1.35;;
38312;SDS011;24114;52.260;6.714;2023-03-31T15:34:18;6.22;;;1.35;;
38312;SDS011;24114;52.260;6.714;2023-03-31T15:36:48;7.53;;;2.08;;
38312;SDS011;24114;52.260;6.714;2023-03-31T15:39:16;6.15;;;1.80;;
38312;SDS011;24114;52.260;6.714;2023-03-31T15:41:45;9.88;;;2.70;;
38312;SDS011;24114;52.260;6.714;2023-03-31T15:44:27;6.07;;;1.60;;